Time;durP1;ratioP1;P1;durP2;ratioP2;P2;SDS_P1;SDS_P2;PMS_P1;PMS_P2;Temp;Humidity;BMP_temperature;BMP_pressure;BME280_temperature;BME280_humidity;BME280_pressure;Samples;Min_cycle;Max_cycle;Signal;HPM_P1;HPM_P2
2022/08/31 00:05:43;;;;;;;0.70;0.70;;;;;;;17.16;63.84;101999.75;5075400;28;20195;-89
2022/08/31 00:08:08;;;;;;;0.63;0.63;;;;;;;17.12;63.78;102012.03;5075232;28;20372;-90
2022/08/31 00:10:33;;;;;;;0.50;0.50;;;;;;;17.10;62.76;102000.75;5074657;28;20047;-90
2022/08/31 00:12:59;;;;;;;0.57;0.57;;;;;;;17.08;63.03;102002.53;5074721;28;20029;-89
2022/08/31 00:15:25;;;;;;;0.50;0.50;;;;;;;17.07;64.25;102011.31;5055062;28;20044;-88
2022/08/31 00:17:52;;;;;;;0.90;0.90;;;;;;;17.06;64.07;102003.47;5054544;28;20048;-88
2022/08/31 00:20:18;;;;;;;;;;;;;;;17.06;63.46;102006.09;5055007;28;20029;-90
2022/08/31 00:22:44;;;;;;;0.70;0.70;;;;;;;17.03;64.88;102003.56;5054512;28;19919;-90
2022/08/31 00:25:09;;;;;;;0.47;0.47;;;;;;;17.02;64.30;101997.44;5054620;28;20028;-91
2022/08/31 00:27:35;;;;;;;0.77;0.70;;;;;;;17.02;62.69;102001.84;5054875;28;20108;-90
2022/08/31 00:30:00;;;;;;;0.83;0.83;;;;;;;17.01;63.42;101994.84;5054731;28;20118;-90
2022/08/31 00:32:26;;;;;;;0.70;0.70;;;;;;;16.98;65.83;101995.81;5054637;28;20454;-90
2022/08/31 00:34:51;;;;;;;0.70;0.70;;;;;;;16.95;63.96;101995.88;5053379;28;20041;-90
2022/08/31 00:37:18;;;;;;;1.33;1.10;;;;;;;16.93;64.79;102000.25;5054464;28;20025;-89
2022/08/31 00:39:43;;;;;;;1.40;1.00;;;;;;;16.92;63.92;101998.53;5054577;28;20021;-90
2022/08/31 00:42:09;;;;;;;0.80;0.80;;;;;;;16.91;64.14;101991.56;5063593;28;20040;-92
2022/08/31 00:44:34;;;;;;;0.97;0.90;;;;;;;16.89;64.53;101996.84;5074440;28;20040;-89
2022/08/31 00:46:59;;;;;;;2.47;1.30;;;;;;;16.88;66.10;101991.66;5074267;28;20397;-93
2022/08/31 00:49:28;;;;;;;2.17;1.40;;;;;;;16.85;65.66;101992.56;5074085;28;20465;-90
2022/08/31 00:51:57;;;;;;;1.05;1.05;;;;;;;16.86;66.13;101988.19;5073739;28;20064;-89
2022/08/31 00:54:31;;;;;;;1.70;1.60;;;;;;;16.85;65.85;102002.19;5074271;28;20093;-89
2022/08/31 00:56:57;;;;;;;1.52;1.42;;;;;;;16.84;65.65;101996.06;5074072;28;20063;-90
2022/08/31 00:59:24;;;;;;;1.50;1.40;;;;;;;16.83;66.36;101997.00;5074703;28;20032;-89
2022/08/31 01:01:49;;;;;;;1.75;1.50;;;;;;;16.82;66.41;101996.13;5074206;28;20028;-88
2022/08/31 01:04:14;;;;;;;1.30;1.20;;;;;;;16.81;66.18;101994.41;5073916;28;20020;-89
2022/08/31 01:06:42;;;;;;;1.10;1.10;;;;;;;16.81;66.20;101998.78;5074241;28;20024;-89
2022/08/31 01:09:08;;;;;;;1.00;0.90;;;;;;;16.81;66.11;101999.63;5073907;28;20043;-89
2022/08/31 01:11:37;;;;;;;1.30;1.20;;;;;;;16.79;67.48;101990.94;5074241;28;20089;-90
2022/08/31 01:14:03;;;;;;;1.13;1.13;;;;;;;16.79;65.90;101992.72;5073694;28;20082;-91
2022/08/31 01:16:55;;;;;;;0.83;0.83;;;;;;;16.79;65.87;101996.19;5074077;28;20435;-89
2022/08/31 01:19:29;;;;;;;1.98;1.23;;;;;;;16.76;67.72;101998.91;5069371;28;20036;-90
2022/08/31 01:22:25;;;;;;;1.40;1.30;;;;;;;16.74;66.79;101994.56;5073587;28;20477;-89
2022/08/31 01:24:53;;;;;;;1.60;1.50;;;;;;;16.71;66.07;101992.88;5073791;28;20060;-90
2022/08/31 01:27:23;;;;;;;1.60;1.50;;;;;;;16.71;67.05;101992.88;5073493;28;20024;-88
2022/08/31 01:29:49;;;;;;;1.67;1.58;;;;;;;16.71;66.34;101992.03;5073359;28;20028;-89
2022/08/31 01:32:14;;;;;;;1.73;1.50;;;;;;;16.67;67.42;101991.22;5073742;28;20021;-89
2022/08/31 01:34:40;;;;;;;1.60;1.50;;;;;;;16.65;67.49;101987.78;5073142;28;20131;-89
2022/08/31 01:37:05;;;;;;;1.70;1.47;;;;;;;16.62;67.66;101991.31;5073487;28;20037;-89
2022/08/31 01:39:31;;;;;;;1.70;1.60;;;;;;;16.59;67.64;101986.16;5073966;28;20048;-90
2022/08/31 01:41:56;;;;;;;1.50;1.40;;;;;;;16.58;67.15;101991.44;5073257;28;20039;-87
2022/08/31 01:44:25;;;;;;;1.20;1.20;;;;;;;16.57;67.34;101984.47;5073723;28;20060;-88
2022/08/31 01:46:51;;;;;;;1.40;1.30;;;;;;;16.55;67.71;101994.13;5077362;28;20085;-90
2022/08/31 01:49:19;;;;;;;1.15;1.10;;;;;;;16.52;67.69;101993.31;5077777;28;20024;-88
2022/08/31 01:51:46;;;;;;;1.30;1.20;;;;;;;16.51;67.21;101996.81;5077913;28;20028;-89
2022/08/31 01:54:11;;;;;;;2.53;1.50;;;;;;;16.48;67.81;101996.03;5076994;28;20469;-90
2022/08/31 01:56:40;;;;;;;2.13;1.80;;;;;;;16.44;68.03;102000.44;5077871;28;20051;-90
2022/08/31 01:59:08;;;;;;;1.80;1.70;;;;;;;16.43;68.31;101992.63;5077258;28;20035;-89
2022/08/31 02:01:37;;;;;;;2.00;1.70;;;;;;;16.41;68.61;101997.03;5077274;28;20047;-89
2022/08/31 02:04:04;;;;;;;2.10;1.90;;;;;;;16.39;68.63;102001.44;5077165;28;20032;-89
2022/08/31 02:06:30;;;;;;;1.90;1.70;;;;;;;16.39;67.25;101996.19;5077267;28;20035;-89
2022/08/31 02:08:56;;;;;;;1.70;1.60;;;;;;;16.39;67.96;101997.06;5077127;28;20116;-91
2022/08/31 02:11:21;;;;;;;2.43;1.50;;;;;;;16.39;69.32;102004.94;5077506;28;20111;-87
2022/08/31 02:13:46;;;;;;;2.20;2.00;;;;;;;16.38;68.25;102004.97;5077495;28;20457;-89
2022/08/31 02:16:12;;;;;;;2.57;2.00;;;;;;;16.32;69.01;102006.81;5076702;28;20094;-89
2022/08/31 02:18:37;;;;;;;2.03;1.83;;;;;;;16.28;70.42;102002.53;5076984;28;20028;-89
2022/08/31 02:21:03;;;;;;;2.63;2.27;;;;;;;16.24;69.00;101997.38;5077029;28;20036;-90
2022/08/31 02:23:29;;;;;;;2.50;1.90;;;;;;;16.23;69.53;102007.03;5077300;28;20024;-90
2022/08/31 02:25:54;;;;;;;1.90;1.80;;;;;;;16.21;68.15;102007.03;5076793;28;20284;-89
2022/08/31 02:28:20;;;;;;;1.60;1.50;;;;;;;16.20;69.75;102007.94;5076881;28;20032;-89
2022/08/31 02:30:46;;;;;;;2.42;2.15;;;;;;;16.15;69.42;102006.31;5076812;28;20047;-89
2022/08/31 02:33:11;;;;;;;2.60;2.40;;;;;;;16.12;69.78;102009.84;5075998;28;20492;-88
2022/08/31 02:35:38;;;;;;;2.10;1.90;;;;;;;16.12;68.63;102001.97;5076976;28;20043;-89
2022/08/31 02:38:04;;;;;;;1.80;1.70;;;;;;;16.12;68.75;102007.22;5076817;28;20538;-88
2022/08/31 02:40:30;;;;;;;4.65;2.55;;;;;;;16.06;70.12;102016.06;5076506;28;20362;-88
2022/08/31 02:42:55;;;;;;;1.60;1.50;;;;;;;16.06;69.67;102010.81;5076200;28;20116;-89
2022/08/31 02:45:21;;;;;;;1.70;1.60;;;;;;;16.03;69.75;102013.53;5076448;28;20020;-90
2022/08/31 02:47:47;;;;;;;1.90;1.80;;;;;;;16.02;70.06;102014.41;5076809;28;20038;-90
2022/08/31 02:50:12;;;;;;;1.70;1.60;;;;;;;16.01;69.29;102006.56;5075812;28;20119;-88
2022/08/31 02:52:37;;;;;;;2.23;1.80;;;;;;;15.99;70.29;102010.97;5076617;28;20028;-89
2022/08/31 02:55:04;;;;;;;3.67;2.20;;;;;;;15.92;71.08;102002.41;5076408;28;20032;-89
2022/08/31 02:57:29;;;;;;;2.95;2.20;;;;;;;15.91;70.07;102000.66;5075423;28;20296;-89
2022/08/31 02:59:54;;;;;;;2.13;1.80;;;;;;;15.88;70.38;102006.81;5076523;28;20028;-89
2022/08/31 03:02:22;;;;;;;1.80;1.70;;;;;;;15.87;70.36;102001.59;5076816;28;20039;-90
2022/08/31 03:04:47;;;;;;;1.70;1.60;;;;;;;15.85;70.35;102001.66;5076630;28;20017;-89
2022/08/31 03:07:12;;;;;;;1.57;1.47;;;;;;;15.83;69.82;102006.00;5075724;28;20392;-89
2022/08/31 03:09:37;;;;;;;1.60;1.50;;;;;;;15.81;70.65;102002.56;5076521;28;20028;-90
2022/08/31 03:12:03;;;;;;;1.80;1.70;;;;;;;15.79;69.98;102001.72;5076044;28;20068;-90
2022/08/31 03:14:28;;;;;;;2.70;1.97;;;;;;;15.74;71.47;101995.72;5076343;28;20039;-89
2022/08/31 03:16:53;;;;;;;3.07;2.00;;;;;;;15.71;70.98;101996.63;5076065;28;20028;-90
2022/08/31 03:19:19;;;;;;;1.97;1.50;;;;;;;15.69;69.62;101995.81;5076842;28;20024;-90
2022/08/31 03:21:45;;;;;;;1.47;1.47;;;;;;;15.70;70.77;102001.88;5078892;28;20048;-89
2022/08/31 03:24:12;;;;;;;1.35;1.33;;;;;;;15.68;70.38;101998.44;5077699;28;20052;-91
2022/08/31 03:26:37;;;;;;;2.13;2.00;;;;;;;15.62;71.52;101999.41;5075926;28;20039;-88
2022/08/31 03:29:02;;;;;;;1.80;1.70;;;;;;;15.59;70.84;101997.72;5076128;28;20029;-91
2022/08/31 03:31:29;;;;;;;2.20;2.00;;;;;;;15.57;71.36;101996.03;5076056;28;20028;-91
2022/08/31 03:33:56;;;;;;;1.77;1.67;;;;;;;15.54;70.34;101999.53;5075945;28;20048;-90
2022/08/31 03:36:21;;;;;;;2.28;1.90;;;;;;;15.51;70.93;102004.84;5075749;28;20028;-91
2022/08/31 03:38:47;;;;;;;2.03;1.83;;;;;;;15.49;70.92;101998.78;5075404;28;20039;-90
2022/08/31 03:41:17;;;;;;;2.43;1.97;;;;;;;15.47;70.90;102003.16;5075057;28;20036;-91
2022/08/31 03:43:42;;;;;;;1.70;1.60;;;;;;;15.46;70.14;102003.19;5075793;28;20035;-91
2022/08/31 03:46:07;;;;;;;1.53;1.43;;;;;;;15.46;69.63;102009.28;5074448;28;20024;-90
2022/08/31 03:48:33;;;;;;;2.07;1.80;;;;;;;15.42;70.91;102013.72;5074365;28;20465;-91
2022/08/31 03:50:58;;;;;;;1.50;1.40;;;;;;;15.42;70.03;102007.63;5075216;28;20029;-91
2022/08/31 03:53:24;;;;;;;1.70;1.60;;;;;;;15.38;71.14;102004.16;5075189;28;20033;-91
2022/08/31 03:55:49;;;;;;;1.50;1.40;;;;;;;15.38;69.90;102006.78;5073212;28;20102;-92
2022/08/31 03:58:14;;;;;;;1.50;1.40;;;;;;;15.36;71.27;102012.94;5075297;28;20031;-90
2022/08/31 04:00:42;;;;;;;1.43;1.33;;;;;;;15.34;69.95;102015.59;5074753;28;20024;-89
2022/08/31 04:03:08;;;;;;;1.35;1.25;;;;;;;15.33;69.74;102011.25;5074904;28;20487;-92
2022/08/31 04:05:40;;;;;;;1.40;1.30;;;;;;;15.32;69.83;102011.25;5074843;28;20017;-92
2022/08/31 04:08:05;;;;;;;3.50;2.00;;;;;;;15.24;71.35;102009.63;5073879;28;20058;-91
2022/08/31 04:10:30;;;;;;;1.90;1.70;;;;;;;15.22;70.31;102005.34;5075513;28;20021;-92
2022/08/31 04:12:56;;;;;;;2.17;1.60;;;;;;;15.22;70.17;102008.78;5075002;28;20048;-90
2022/08/31 04:15:21;;;;;;;1.80;1.70;;;;;;;15.21;69.96;102008.84;5074451;28;20024;-91
2022/08/31 04:17:46;;;;;;;2.10;1.40;;;;;;;15.19;69.78;102013.22;5074999;28;20426;-91
2022/08/31 04:20:12;;;;;;;1.40;1.30;;;;;;;15.18;70.00;102016.72;5076055;28;20119;-89
2022/08/31 04:22:38;;;;;;;1.10;1.10;;;;;;;15.16;69.70;102010.63;5076009;28;20024;-91
2022/08/31 04:25:03;;;;;;;1.83;1.10;;;;;;;15.13;70.56;102019.41;5074826;28;20281;-90
2022/08/31 04:27:29;;;;;;;1.30;0.90;;;;;;;15.11;69.68;102014.22;5074742;28;20527;-91
2022/08/31 04:29:55;;;;;;;1.50;1.40;;;;;;;15.09;69.73;102021.22;5074190;28;20037;-89
2022/08/31 04:32:20;;;;;;;1.00;1.00;;;;;;;15.07;69.88;102022.13;5074649;28;20036;-91
2022/08/31 04:34:45;;;;;;;1.13;0.97;;;;;;;15.05;69.47;102016.91;5074726;28;20141;-91
2022/08/31 04:37:13;;;;;;;1.37;1.27;;;;;;;15.02;69.49;102019.59;5073693;28;20535;-91
2022/08/31 04:39:39;;;;;;;1.13;1.00;;;;;;;14.98;69.48;102023.97;5074570;28;20170;-92
2022/08/31 04:42:05;;;;;;;0.98;0.98;;;;;;;14.91;70.84;102022.34;5074319;28;20017;-90
2022/08/31 04:44:30;;;;;;;1.40;1.30;;;;;;;14.87;69.37;102023.25;5073931;28;20035;-91
2022/08/31 04:46:55;;;;;;;1.27;1.10;;;;;;;14.87;69.02;102020.66;5073882;28;20423;-91
2022/08/31 04:49:20;;;;;;;0.87;0.87;;;;;;;14.86;69.54;102018.06;5074214;28;20021;-92
2022/08/31 04:51:46;;;;;;;1.33;1.20;;;;;;;14.82;69.44;102019.88;5073126;28;20024;-92
2022/08/31 04:54:12;;;;;;;1.30;1.20;;;;;;;14.78;69.54;102013.84;5074262;28;20028;-92
2022/08/31 04:56:39;;;;;;;;;;;;;;;14.75;70.03;102020.84;5074754;28;20017;-91
2022/08/31 04:59:07;;;;;;;1.50;1.40;;;;;;;14.71;69.40;102027.84;5072926;28;19919;-91
2022/08/31 05:01:39;;;;;;;1.02;1.02;;;;;;;14.70;69.94;102023.50;5074153;28;20056;-92
2022/08/31 05:04:06;;;;;;;1.30;1.20;;;;;;;14.67;69.70;102031.41;5073229;28;20025;-92
2022/08/31 05:06:35;;;;;;;1.77;1.20;;;;;;;14.65;69.65;102038.38;5074173;28;20035;-90
2022/08/31 05:09:07;;;;;;;1.00;1.00;;;;;;;14.64;69.55;102040.09;5073884;28;20021;-92
2022/08/31 05:11:32;;;;;;;1.20;1.10;;;;;;;14.64;69.13;102037.47;5073594;28;20058;-92
2022/08/31 05:14:00;;;;;;;1.07;0.97;;;;;;;14.62;69.76;102031.44;5073754;28;20422;-91
2022/08/31 05:16:26;;;;;;;2.13;1.30;;;;;;;14.61;69.71;102034.06;5073356;28;20070;-92
2022/08/31 05:18:52;;;;;;;2.93;1.60;;;;;;;14.58;69.28;102034.97;5072744;28;20029;-90
2022/08/31 05:21:24;;;;;;;1.50;1.40;;;;;;;14.56;69.34;102038.50;5074194;28;20285;-92
2022/08/31 05:23:49;;;;;;;1.20;1.05;;;;;;;14.56;69.57;102036.72;5074006;28;20017;-91
2022/08/31 05:26:19;;;;;;;1.10;1.10;;;;;;;14.57;68.86;102037.59;5072994;28;20380;-91
2022/08/31 05:28:45;;;;;;;1.20;1.10;;;;;;;14.58;68.93;102042.81;5073694;28;20029;-91
2022/08/31 05:31:11;;;;;;;1.67;1.00;;;;;;;14.59;68.02;102041.91;5073452;28;20111;-91
2022/08/31 05:33:37;;;;;;;1.23;1.13;;;;;;;14.59;68.51;102049.75;5073029;28;20044;-92
2022/08/31 05:36:03;;;;;;;1.10;1.00;;;;;;;14.58;68.64;102053.25;5073583;28;20463;-91
2022/08/31 05:38:29;;;;;;;1.40;1.30;;;;;;;14.61;68.52;102048.00;5073840;28;20020;-91
2022/08/31 05:40:57;;;;;;;1.20;1.20;;;;;;;14.63;68.26;102048.84;5072703;28;20032;-90
2022/08/31 05:43:23;;;;;;;0.88;0.88;;;;;;;14.65;68.14;102049.66;5073737;28;20099;-92
2022/08/31 05:45:48;;;;;;;0.90;0.90;;;;;;;14.69;67.84;102044.44;5073359;28;20447;-91
2022/08/31 05:48:13;;;;;;;1.20;1.10;;;;;;;14.69;67.67;102045.31;5072963;28;20028;-91
2022/08/31 05:50:39;;;;;;;0.90;0.90;;;;;;;14.69;67.92;102047.94;5073666;28;20429;-90
2022/08/31 05:53:05;;;;;;;1.03;0.93;;;;;;;14.73;67.41;102044.38;5072410;28;20044;-90
2022/08/31 05:55:31;;;;;;;1.42;0.90;;;;;;;14.73;67.51;102051.38;5073747;28;20043;-91
2022/08/31 05:57:56;;;;;;;1.50;1.40;;;;;;;14.71;67.45;102047.91;5073614;28;20550;-89
2022/08/31 06:00:22;;;;;;;1.10;1.10;;;;;;;14.72;67.18;102055.72;5072379;28;20032;-92
2022/08/31 06:03:01;;;;;;;1.03;1.03;;;;;;;14.70;67.25;102046.16;5073151;28;20123;-89
2022/08/31 06:05:27;;;;;;;1.70;1.20;;;;;;;14.69;67.09;102049.66;5073823;28;20051;-89
2022/08/31 06:07:52;;;;;;;2.23;1.40;;;;;;;14.72;66.98;102054.84;5072386;28;20025;-89
2022/08/31 06:10:18;;;;;;;1.67;1.57;;;;;;;14.70;66.97;102054.84;5072554;28;20025;-86
2022/08/31 06:12:46;;;;;;;2.10;1.63;;;;;;;14.74;66.81;102055.72;5072745;28;20037;-95
2022/08/31 06:15:12;;;;;;;2.25;1.63;;;;;;;14.77;66.98;102063.47;5072618;28;20028;-94
2022/08/31 06:17:38;;;;;;;1.20;1.20;;;;;;;14.82;66.68;102061.69;5073060;28;20081;-91
2022/08/31 06:20:07;;;;;;;;;;;;;;;14.85;66.64;102069.50;5073837;28;20278;-88
2022/08/31 06:22:34;;;;;;;1.60;1.50;;;;;;;14.84;66.09;102067.75;5073804;28;19912;-92
2022/08/31 06:24:59;;;;;;;1.45;1.35;;;;;;;14.89;65.97;102068.53;5073277;28;20029;-92
2022/08/31 06:27:26;;;;;;;2.30;1.57;;;;;;;14.95;65.61;102078.06;5073116;28;20499;-93
2022/08/31 06:29:51;;;;;;;2.33;1.85;;;;;;;14.94;64.98;102074.59;5072295;28;20028;-92
2022/08/31 06:32:18;;;;;;;2.53;2.00;;;;;;;15.02;65.90;102082.34;5074053;28;20039;-93
2022/08/31 06:34:44;;;;;;;3.42;1.70;;;;;;;15.11;65.34;102078.69;5076663;28;20493;-91
2022/08/31 06:37:10;;;;;;;2.20;1.50;;;;;;;15.21;65.19;102080.28;5075927;28;20032;-91
2022/08/31 06:39:36;;;;;;;2.17;1.75;;;;;;;15.27;64.08;102077.59;5076943;28;20031;-92
2022/08/31 06:42:02;;;;;;;3.17;1.90;;;;;;;15.34;63.76;102082.72;5075830;28;20029;-92
2022/08/31 06:44:28;;;;;;;2.93;2.07;;;;;;;15.42;64.10;102089.56;5075804;28;20162;-93
2022/08/31 06:46:54;;;;;;;1.70;1.60;;;;;;;15.52;64.55;102095.53;5076909;28;20020;-93
2022/08/31 06:49:19;;;;;;;1.43;1.33;;;;;;;15.68;64.07;102093.53;5076034;28;20350;-92
2022/08/31 06:51:45;;;;;;;2.67;2.00;;;;;;;15.78;61.60;102086.34;5076598;28;20021;-93
2022/08/31 06:54:29;;;;;;;4.83;2.30;;;;;;;15.84;62.46;102091.53;5075675;28;20032;-92
2022/08/31 06:56:58;;;;;;;3.55;1.95;;;;;;;15.98;61.43;102095.66;5075219;28;20074;-89
2022/08/31 06:59:41;;;;;;;2.42;1.90;;;;;;;15.99;61.90;102103.50;5076138;28;20020;-92
2022/08/31 07:02:07;;;;;;;3.78;1.85;;;;;;;15.93;61.34;102097.50;5076399;28;20021;-93
2022/08/31 07:04:56;;;;;;;2.77;1.90;;;;;;;15.91;60.82;102102.75;5076148;28;20499;-92
2022/08/31 07:07:40;;;;;;;2.40;2.05;;;;;;;16.06;60.70;102106.88;5075905;28;20036;-91
2022/08/31 07:10:09;;;;;;;2.58;2.00;;;;;;;17.00;59.97;102101.50;5076153;28;20042;-89
2022/08/31 07:12:52;;;;;;;1.73;1.63;;;;;;;19.03;56.26;102100.66;5075721;28;20481;-94
2022/08/31 07:15:17;;;;;;;2.15;1.58;;;;;;;20.01;54.80;102101.81;5075500;28;20605;-91
2022/08/31 07:17:42;;;;;;;1.70;1.60;;;;;;;21.12;50.60;102107.41;5075791;28;20069;-93
2022/08/31 07:21:02;;;;;;;1.77;1.30;;;;;;;21.90;48.28;102094.53;5079426;28;20028;-92
2022/08/31 07:23:27;;;;;;;1.95;1.50;;;;;;;21.72;48.07;102096.22;5015462;28;20046;-93
2022/08/31 07:25:53;;;;;;;1.40;1.30;;;;;;;21.03;49.95;102097.22;5070202;28;20050;-93
2022/08/31 07:28:18;;;;;;;2.23;1.43;;;;;;;20.33;49.29;102097.16;5076110;28;20400;-89
2022/08/31 07:30:54;;;;;;;1.90;1.67;;;;;;;19.47;50.01;102095.75;5074939;28;20023;-87
2022/08/31 07:33:19;;;;;;;2.10;1.80;;;;;;;18.79;51.75;102105.72;5073830;28;20024;-87
2022/08/31 07:35:56;;;;;;;1.73;1.50;;;;;;;18.34;53.36;102104.34;5074481;28;20029;-87
2022/08/31 07:44:09;;;;;;;2.15;1.65;;;;;;;17.67;55.92;102108.72;5074094;28;20127;-87
2022/08/31 07:46:35;;;;;;;2.47;1.55;;;;;;;17.72;55.42;102108.59;5073925;28;20487;-86
2022/08/31 07:49:00;;;;;;;1.67;1.50;;;;;;;17.66;56.07;102098.22;5074840;28;20025;-90
2022/08/31 07:51:26;;;;;;;1.50;1.40;;;;;;;17.71;56.20;102110.34;5074977;28;20035;-90
2022/08/31 07:53:52;;;;;;;1.73;1.63;;;;;;;17.79;55.86;102107.53;5073966;28;20024;-87
2022/08/31 07:56:18;;;;;;;3.60;1.50;;;;;;;17.87;56.46;102104.72;5075265;28;20017;-90
2022/08/31 07:58:46;;;;;;;2.95;1.75;;;;;;;17.96;56.03;102106.25;5075349;28;20024;-89
2022/08/31 08:01:30;;;;;;;3.15;2.20;;;;;;;17.90;56.36;102099.38;5074238;28;20465;-89
2022/08/31 08:04:00;;;;;;;2.60;2.13;;;;;;;17.92;56.01;102100.19;5075321;28;20016;-88
2022/08/31 08:06:40;;;;;;;2.40;1.83;;;;;;;17.93;56.22;102107.16;5075130;28;20017;-86
2022/08/31 08:09:06;;;;;;;1.92;1.70;;;;;;;17.91;56.04;102109.84;5074221;28;20020;-87
2022/08/31 08:11:35;;;;;;;1.83;1.57;;;;;;;18.06;56.53;102110.38;5073901;28;20047;-86
2022/08/31 08:14:03;;;;;;;4.80;2.10;;;;;;;18.11;55.87;102107.63;5073006;28;20028;-86
2022/08/31 08:16:29;;;;;;;2.00;1.80;;;;;;;18.15;56.07;102110.13;5074015;28;20042;-88
2022/08/31 08:18:54;;;;;;;2.10;1.90;;;;;;;18.21;55.86;102112.56;5073687;28;20488;-87
2022/08/31 08:21:20;;;;;;;2.00;1.63;;;;;;;18.35;55.89;102116.59;5073083;28;20025;-86
2022/08/31 08:23:45;;;;;;;2.47;1.87;;;;;;;18.44;56.44;102118.97;5073771;28;20028;-87
2022/08/31 08:26:10;;;;;;;2.10;1.77;;;;;;;18.49;56.05;102121.44;5074305;28;20066;-87
2022/08/31 08:28:36;;;;;;;3.50;2.23;;;;;;;18.27;55.59;102127.31;5072994;28;20074;-86
2022/08/31 08:31:01;;;;;;;3.50;2.40;;;;;;;18.14;56.32;102118.91;5073525;28;20075;-86
2022/08/31 08:33:28;;;;;;;4.13;2.50;;;;;;;17.97;56.75;102129.84;5073699;28;20052;-86
2022/08/31 08:35:59;;;;;;;7.65;2.40;;;;;;;17.95;57.42;102121.13;5072709;28;20362;-86
2022/08/31 08:38:29;;;;;;;1.92;1.83;;;;;;;18.02;57.53;102124.47;5073709;28;20052;-86
2022/08/31 08:40:57;;;;;;;3.47;2.28;;;;;;;18.09;57.47;102122.56;5073584;28;20032;-85
2022/08/31 08:43:31;;;;;;;1.83;1.55;;;;;;;18.19;57.69;102134.53;5073210;28;20235;-85
2022/08/31 08:45:56;;;;;;;2.63;1.80;;;;;;;18.33;56.47;102124.53;5068834;28;20033;-87
2022/08/31 08:48:26;;;;;;;2.07;1.87;;;;;;;18.44;57.02;102133.88;5073659;28;20017;-86
2022/08/31 08:50:52;;;;;;;1.98;1.80;;;;;;;18.63;56.76;102123.72;5072857;28;20024;-87
2022/08/31 08:53:23;;;;;;;3.95;1.90;;;;;;;18.76;56.66;102130.31;5073370;28;20037;-86
2022/08/31 08:55:49;;;;;;;3.20;2.00;;;;;;;18.87;56.00;102132.63;5071981;28;20036;-86
2022/08/31 08:58:17;;;;;;;4.18;2.00;;;;;;;18.87;55.71;102127.38;5072372;28;20033;-87
2022/08/31 09:00:48;;;;;;;2.03;1.90;;;;;;;19.01;55.51;102128.78;5073034;28;20032;-86
2022/08/31 09:03:29;;;;;;;3.65;2.33;;;;;;;19.16;55.77;102128.28;5061831;28;20186;-86
2022/08/31 09:06:08;;;;;;;5.22;2.40;;;;;;;19.27;54.32;102130.59;5072349;28;20020;-86
2022/08/31 09:08:49;;;;;;;4.18;2.35;;;;;;;19.38;54.45;102122.34;5073358;28;20398;-87
2022/08/31 09:11:19;;;;;;;2.45;2.00;;;;;;;19.48;54.97;102118.50;5072487;28;20029;-87
2022/08/31 09:14:14;;;;;;;3.28;2.42;;;;;;;19.65;53.92;102120.56;5073102;28;20480;-88
2022/08/31 09:17:02;;;;;;;2.40;2.20;;;;;;;19.78;54.12;102121.03;5072350;28;20033;-86
2022/08/31 09:19:56;;;;;;;2.90;2.00;;;;;;;19.98;55.16;102112.50;5073136;28;20169;-87
2022/08/31 09:22:13;;;;;;;2.20;2.00;;;;;;;20.22;52.98;102125.69;5072780;28;20028;-87
2022/08/31 09:24:38;;;;;;;3.80;2.20;;;;;;;20.39;53.20;102118.97;5072002;28;20032;-86
2022/08/31 09:27:18;;;;;;;3.63;2.40;;;;;;;20.53;52.68;102114.06;5072791;28;20021;-87
2022/08/31 09:29:51;;;;;;;2.88;2.10;;;;;;;20.52;52.84;102115.81;5073204;28;20032;-86
2022/08/31 09:32:22;;;;;;;3.42;2.55;;;;;;;20.41;52.78;102112.72;5071895;28;20035;-87
2022/08/31 09:35:08;;;;;;;3.03;2.40;;;;;;;20.46;52.66;102118.69;5072270;28;20041;-88
2022/08/31 09:37:45;;;;;;;;;;;;;;;20.43;52.42;102104.75;5073448;28;20025;-87
2022/08/31 09:40:30;;;;;;;2.88;2.10;;;;;;;20.42;53.50;102113.59;5071902;28;19916;-87
2022/08/31 09:43:23;;;;;;;4.82;2.92;;;;;;;20.23;53.46;102121.28;5072249;28;20032;-87
2022/08/31 09:46:06;;;;;;;3.10;2.50;;;;;;;20.35;53.97;102118.22;5062769;28;20032;-87
2022/08/31 09:48:44;;;;;;;3.90;2.72;;;;;;;20.26;53.52;102121.19;5073039;28;20052;-89
2022/08/31 09:51:19;;;;;;;3.65;2.20;;;;;;;20.32;53.83;102119.16;5072594;28;20427;-88
2022/08/31 09:56:29;;;;;;;4.72;2.60;;;;;;;20.71;53.17;102124.81;5073198;28;20031;-86
2022/08/31 09:59:01;;;;;;;5.37;3.00;;;;;;;20.67;52.65;102129.34;5072495;28;20016;-86
2022/08/31 10:01:33;;;;;;;6.20;3.50;;;;;;;20.43;53.09;102118.78;5071999;28;20377;-87
2022/08/31 10:04:19;;;;;;;6.72;3.38;;;;;;;20.36;54.98;102120.78;5072397;28;20044;-86
2022/08/31 10:06:56;;;;;;;5.43;3.20;;;;;;;20.68;54.01;102108.19;5074403;28;20195;-87
2022/08/31 10:09:45;;;;;;;2.40;2.10;;;;;;;21.13;52.38;102106.50;5072266;28;20016;-87
2022/08/31 10:12:42;;;;;;;3.85;2.17;;;;;;;21.52;52.40;102107.56;5074759;28;20509;-86
2022/08/31 10:15:25;;;;;;;3.72;2.45;;;;;;;21.85;52.20;102090.38;5074410;28;20036;-86
2022/08/31 10:18:49;;;;;;;6.28;3.00;;;;;;;22.03;51.69;102100.16;5076632;28;20024;-84
2022/08/31 10:21:34;;;;;;;3.15;2.65;;;;;;;22.06;49.39;102101.81;5077688;28;20032;-90
2022/08/31 10:24:31;;;;;;;4.45;2.83;;;;;;;22.10;50.41;102095.47;5073978;28;20435;-84
2022/08/31 10:27:07;;;;;;;4.93;3.20;;;;;;;22.21;49.76;102103.78;5073714;28;20035;-84
2022/08/31 10:29:53;;;;;;;10.68;3.47;;;;;;;21.81;49.58;102091.44;5074013;28;20076;-85
2022/08/31 10:32:31;;;;;;;4.85;3.40;;;;;;;21.59;51.01;102100.28;5075221;28;20035;-84
2022/08/31 10:35:18;;;;;;;6.57;3.20;;;;;;;21.48;51.27;102105.13;5074721;28;20044;-84
2022/08/31 10:38:17;;;;;;;3.97;2.80;;;;;;;21.64;51.24;102092.16;5076035;28;20392;-82
2022/08/31 10:41:10;;;;;;;7.35;3.40;;;;;;;21.90;51.14;102093.69;5075873;28;20489;-83
2022/08/31 10:44:02;;;;;;;4.45;2.90;;;;;;;22.09;51.17;102090.22;5073997;28;20033;-84
2022/08/31 10:46:33;;;;;;;4.00;2.30;;;;;;;22.36;50.30;102098.69;5075799;28;20532;-83
2022/08/31 10:49:00;;;;;;;5.00;2.75;;;;;;;22.58;49.80;102093.34;5074662;28;20020;-85
2022/08/31 10:52:01;;;;;;;4.43;3.05;;;;;;;22.78;49.43;102089.75;5075863;28;20032;-85
2022/08/31 10:54:57;;;;;;;5.82;3.65;;;;;;;22.67;49.65;102087.59;5032551;28;20044;-85
2022/08/31 10:57:49;;;;;;;4.70;3.13;;;;;;;22.62;49.41;102086.97;5074841;28;20036;-83
2022/08/31 11:00:44;;;;;;;5.15;3.33;;;;;;;22.75;49.28;102091.66;5075683;28;20024;-85
2022/08/31 11:03:31;;;;;;;4.00;2.73;;;;;;;23.00;49.33;102096.69;5074866;28;20024;-84
2022/08/31 11:06:24;;;;;;;6.35;3.47;;;;;;;23.10;48.67;102086.47;5074705;28;20109;-85
2022/08/31 11:09:01;;;;;;;4.20;2.80;;;;;;;23.17;48.96;102085.28;5075052;28;20456;-85
2022/08/31 11:11:42;;;;;;;4.70;3.15;;;;;;;23.27;48.82;102083.03;5074927;28;20024;-84
2022/08/31 11:14:52;;;;;;;3.55;2.70;;;;;;;23.41;49.38;102077.06;5075007;28;20021;-85
2022/08/31 11:17:49;;;;;;;9.07;3.80;;;;;;;23.40;48.06;102084.16;5073923;28;20086;-85
2022/08/31 11:20:53;;;;;;;6.18;3.55;;;;;;;23.36;47.89;102093.16;5069213;28;20047;-83
2022/08/31 11:23:21;;;;;;;7.55;3.90;;;;;;;23.14;48.05;102083.59;5075337;28;20024;-89
2022/08/31 11:26:25;;;;;;;4.28;3.10;;;;;;;23.39;48.75;102082.44;5075025;28;20484;-89
2022/08/31 11:29:08;;;;;;;3.10;2.60;;;;;;;23.68;47.52;102079.22;5075212;28;20020;-82
2022/08/31 11:31:37;;;;;;;5.57;2.90;;;;;;;23.75;46.02;102072.69;5074349;28;20039;-86
2022/08/31 11:34:14;;;;;;;4.22;2.67;;;;;;;23.91;47.43;102073.59;5054453;28;20049;-84
2022/08/31 11:36:48;;;;;;;4.22;2.80;;;;;;;23.86;46.60;102066.81;5055044;28;20162;-82
2022/08/31 11:39:25;;;;;;;5.15;2.67;;;;;;;23.86;46.69;102073.00;5053918;28;20551;-84
2022/08/31 11:41:51;;;;;;;6.50;3.28;;;;;;;23.71;46.61;102063.19;5054695;28;20040;-85
2022/08/31 11:44:28;;;;;;;4.13;2.85;;;;;;;23.75;47.23;102065.59;5054652;28;20023;-83
2022/08/31 11:47:25;;;;;;;4.18;2.80;;;;;;;23.81;46.34;102060.94;5064311;28;20419;-81
2022/08/31 11:49:54;;;;;;;6.60;3.30;;;;;;;23.56;46.63;102062.19;5074544;28;20028;-85
2022/08/31 11:52:42;;;;;;;5.75;3.58;;;;;;;23.57;47.12;102048.84;5073608;28;20389;-84
2022/08/31 11:55:13;;;;;;;3.78;2.50;;;;;;;23.78;47.37;102056.63;5074371;28;20372;-85
2022/08/31 11:58:14;;;;;;;8.07;3.40;;;;;;;23.79;46.63;102062.78;5074694;28;20370;-86